createdAt,value
2018-04-22T00:00:08.203Z,11.50
2018-04-22T00:02:35.204Z,5.83
2018-04-22T00:05:02.076Z,4.07
2018-04-22T00:07:28.948Z,5.73
2018-04-22T00:09:55.878Z,7.30
2018-04-22T00:12:22.750Z,8.13
2018-04-22T00:14:49.620Z,9.03
2018-04-22T00:17:16.537Z,5.10
2018-04-22T00:19:43.474Z,5.97
2018-04-22T00:22:10.537Z,5.17
2018-04-22T00:24:37.455Z,8.83
2018-04-22T00:27:04.356Z,8.00
2018-04-22T00:29:31.281Z,8.00
2018-04-22T00:31:58.151Z,6.67
2018-04-22T00:34:25.215Z,6.43
2018-04-22T00:36:52.825Z,10.97
2018-04-22T00:39:19.693Z,11.00
2018-04-22T00:41:47.399Z,9.63
2018-04-22T00:44:14.304Z,6.67
2018-04-22T00:46:41.224Z,6.63
2018-04-22T00:49:08.085Z,8.43
2018-04-22T00:51:35.181Z,5.93
2018-04-22T00:54:20.252Z,5.87
2018-04-22T00:56:47.968Z,6.83
2018-04-22T00:59:14.947Z,10.87
2018-04-22T01:01:41.886Z,6.70
2018-04-22T01:04:08.900Z,4.80
2018-04-22T01:06:35.779Z,4.73
2018-04-22T01:09:02.840Z,6.40
2018-04-22T01:11:29.751Z,5.27
2018-04-22T01:13:56.612Z,5.40
2018-04-22T01:16:23.525Z,7.23
2018-04-22T01:18:50.454Z,4.97
2018-04-22T01:21:17.328Z,6.27
2018-04-22T01:23:44.240Z,4.03
2018-04-22T01:26:11.191Z,4.57
2018-04-22T01:28:38.109Z,6.90
2018-04-22T01:31:04.992Z,6.33
2018-04-22T01:33:31.987Z,4.57
2018-04-22T01:35:58.854Z,5.27
2018-04-22T01:38:26.470Z,3.13
2018-04-22T01:40:53.798Z,5.40
2018-04-22T01:43:20.741Z,6.80
2018-04-22T01:45:47.627Z,8.60
2018-04-22T01:48:14.540Z,6.07
2018-04-22T01:50:41.458Z,7.43
2018-04-22T01:53:09.246Z,4.67
2018-04-22T01:55:36.225Z,7.30
2018-04-22T01:58:03.180Z,6.73
2018-04-22T02:00:30.136Z,6.40
2018-04-22T02:02:57.061Z,6.30
2018-04-22T02:05:23.972Z,9.27
2018-04-22T02:07:50.932Z,7.97
2018-04-22T02:10:17.910Z,4.77
2018-04-22T02:12:44.801Z,8.77
2018-04-22T02:15:12.465Z,6.17
2018-04-22T02:17:40.129Z,8.27
2018-04-22T02:20:07.748Z,6.50
2018-04-22T02:22:35.746Z,5.63
2018-04-22T02:25:03.399Z,8.07
2018-04-22T02:27:30.276Z,8.40
2018-04-22T02:29:57.217Z,6.37
2018-04-22T02:32:24.812Z,8.80
2018-04-22T02:34:51.689Z,8.60
2018-04-22T02:37:18.668Z,8.53
2018-04-22T02:39:46.335Z,6.97
2018-04-22T02:42:14.060Z,7.03
2018-04-22T02:44:46.866Z,10.17
2018-04-22T02:47:14.585Z,7.10
2018-04-22T02:49:41.451Z,8.63
2018-04-22T02:52:08.444Z,9.73
2018-04-22T02:54:35.372Z,7.37
2018-04-22T02:57:02.345Z,6.63
2018-04-22T02:59:30.038Z,6.30
2018-04-22T03:01:56.964Z,7.07
2018-04-22T03:04:23.857Z,5.70
2018-04-22T03:06:51.129Z,7.20
2018-04-22T03:09:18.795Z,5.90
2018-04-22T03:11:46.480Z,11.40
2018-04-22T03:14:13.389Z,9.10
2018-04-22T03:16:40.265Z,7.57
2018-04-22T03:19:07.910Z,8.10
2018-04-22T03:21:35.529Z,6.93
2018-04-22T03:24:02.446Z,8.50
2018-04-22T03:26:29.359Z,11.77
2018-04-22T03:28:56.264Z,7.77
2018-04-22T03:31:23.192Z,9.37
2018-04-22T03:33:50.177Z,6.70
2018-04-22T03:36:17.127Z,7.23
2018-04-22T03:38:44.056Z,8.20
2018-04-22T03:41:10.928Z,9.03
2018-04-22T03:43:37.804Z,6.80
2018-04-22T03:46:04.748Z,12.43
2018-04-22T03:48:31.675Z,6.37
2018-04-22T03:50:58.598Z,11.07
2018-04-22T03:53:25.557Z,9.73
2018-04-22T03:55:52.424Z,8.67
2018-04-22T03:58:20.441Z,10.63
2018-04-22T04:00:48.149Z,7.53
2018-04-22T04:03:15.769Z,8.33
2018-04-22T04:05:42.692Z,7.20
2018-04-22T04:08:09.582Z,12.10
2018-04-22T04:10:36.529Z,7.73
2018-04-22T04:13:03.405Z,6.80
2018-04-22T04:15:31.063Z,8.57
2018-04-22T04:21:34.487Z,7.67
2018-04-22T04:27:44.461Z,9.03
2018-04-22T04:30:12.131Z,7.30
2018-04-22T04:32:39.745Z,7.03
2018-04-22T04:35:06.934Z,9.83
2018-04-22T04:37:33.847Z,10.33
2018-04-22T04:40:00.718Z,7.57
2018-04-22T04:42:27.627Z,6.97
2018-04-22T04:44:54.495Z,10.33
2018-04-22T04:47:21.446Z,9.17
2018-04-22T04:49:48.323Z,7.60
2018-04-22T04:52:15.926Z,8.97
2018-04-22T04:54:42.900Z,7.03
2018-04-22T04:57:09.859Z,8.60
2018-04-22T04:59:37.579Z,9.43
2018-04-22T05:02:04.451Z,10.33
2018-04-22T05:04:31.410Z,8.53
2018-04-22T05:06:58.278Z,7.37
2018-04-22T05:09:25.871Z,9.37
2018-04-22T05:11:52.792Z,8.00
2018-04-22T05:14:20.395Z,6.30
2018-04-22T05:16:47.400Z,9.13
2018-04-22T05:19:15.003Z,6.00
2018-04-22T05:21:41.941Z,12.43
2018-04-22T05:24:08.895Z,5.67
2018-04-22T05:26:35.865Z,5.77
2018-04-22T05:29:02.751Z,5.00
2018-04-22T05:31:29.716Z,8.17
2018-04-22T05:33:56.869Z,10.40
2018-04-22T05:36:23.846Z,6.83
2018-04-22T05:38:50.708Z,6.30
2018-04-22T05:41:17.582Z,6.77
2018-04-22T05:43:45.306Z,7.53
2018-04-22T05:46:13.012Z,6.10
2018-04-22T05:48:40.618Z,10.27
2018-04-22T05:51:07.568Z,10.47
2018-04-22T05:53:34.475Z,9.77
2018-04-22T05:56:01.455Z,9.13
2018-04-22T05:58:28.376Z,6.53
2018-04-22T06:00:55.459Z,6.90
2018-04-22T06:03:22.418Z,6.53
2018-04-22T06:05:49.309Z,7.87
2018-04-22T06:08:16.284Z,7.53
2018-04-22T06:10:43.159Z,5.90
2018-04-22T06:13:10.043Z,7.50
2018-04-22T06:15:37.983Z,5.33
2018-04-22T06:18:04.855Z,6.10
2018-04-22T06:20:32.457Z,8.07
2018-04-22T06:22:59.379Z,11.00
2018-04-22T06:25:26.244Z,9.43
2018-04-22T06:27:53.157Z,7.40
2018-04-22T06:30:20.824Z,6.33
2018-04-22T06:32:47.778Z,8.63
2018-04-22T06:35:14.637Z,6.17
2018-04-22T06:37:41.653Z,8.90
2018-04-22T06:40:09.263Z,6.60
2018-04-22T06:42:36.199Z,8.20
2018-04-22T06:45:03.179Z,7.40
2018-04-22T06:47:30.087Z,4.20
2018-04-22T06:49:57.304Z,5.20
2018-04-22T06:52:24.971Z,9.87
2018-04-22T06:54:52.600Z,7.63
2018-04-22T06:57:19.525Z,6.50
2018-04-22T06:59:46.398Z,6.23
2018-04-22T07:02:13.669Z,4.87
2018-04-22T07:04:40.544Z,5.27
2018-04-22T07:07:07.406Z,6.47
2018-04-22T07:09:34.351Z,4.97
2018-04-22T07:12:01.313Z,5.90
2018-04-22T07:14:28.190Z,8.30
2018-04-22T07:16:55.102Z,6.67
2018-04-22T07:19:22.083Z,7.70
2018-04-22T07:21:49.746Z,7.37
2018-04-22T07:24:17.015Z,7.20
2018-04-22T07:26:44.632Z,5.63
2018-04-22T07:29:11.484Z,4.50
2018-04-22T07:31:38.434Z,5.13
2018-04-22T07:34:05.337Z,9.33
2018-04-22T07:36:32.274Z,4.93
2018-04-22T07:38:59.141Z,8.57
2018-04-22T07:41:26.052Z,7.93
2018-04-22T07:43:52.950Z,4.63
2018-04-22T07:46:19.914Z,9.43
2018-04-22T07:48:46.805Z,8.57
2018-04-22T07:51:14.036Z,6.27
2018-04-22T07:53:41.655Z,6.30
2018-04-22T07:56:08.543Z,6.03
2018-04-22T07:58:36.221Z,3.37
2018-04-22T08:01:03.189Z,5.70
2018-04-22T08:03:30.526Z,8.50
2018-04-22T08:05:57.393Z,5.10
2018-04-22T08:08:24.371Z,9.67
2018-04-22T08:10:51.358Z,4.53
2018-04-22T08:13:18.956Z,6.10
2018-04-22T08:15:45.944Z,5.53
2018-04-22T08:18:12.852Z,5.40
2018-04-22T08:20:39.831Z,3.87
2018-04-22T08:23:06.798Z,5.73
2018-04-22T08:25:34.454Z,5.40
2018-04-22T08:28:01.323Z,5.03
2018-04-22T08:30:28.207Z,3.47
2018-04-22T08:32:55.523Z,3.57
2018-04-22T08:35:22.431Z,4.97
2018-04-22T08:37:49.923Z,5.73
2018-04-22T08:40:16.925Z,5.53
2018-04-22T08:42:43.861Z,7.57
2018-04-22T08:45:11.063Z,4.70
2018-04-22T08:47:38.846Z,4.87
2018-04-22T08:50:05.776Z,4.73
2018-04-22T08:52:33.432Z,4.70
2018-04-22T08:55:01.057Z,9.00
2018-04-22T08:57:28.053Z,6.50
2018-04-22T08:59:55.770Z,3.20
2018-04-22T09:02:22.824Z,3.90
2018-04-22T09:04:49.712Z,8.33
2018-04-22T09:07:17.320Z,5.67
2018-04-22T09:09:44.243Z,3.50
2018-04-22T09:12:11.114Z,8.00
2018-04-22T09:14:38.029Z,4.87
2018-04-22T09:17:04.902Z,6.17
2018-04-22T09:19:32.098Z,4.50
2018-04-22T09:21:59.728Z,5.00
2018-04-22T09:24:26.664Z,6.00
2018-04-22T09:26:53.676Z,2.93
2018-04-22T09:29:20.892Z,4.27
2018-04-22T09:31:47.844Z,5.70
2018-04-22T09:34:15.525Z,4.00
2018-04-22T09:36:42.518Z,4.47
2018-04-22T09:39:09.385Z,8.10
2018-04-22T09:41:36.296Z,5.50
2018-04-22T09:44:03.211Z,5.20
2018-04-22T09:46:30.888Z,6.07
2018-04-22T09:48:57.871Z,5.60
2018-04-22T09:51:24.765Z,6.70
2018-04-22T09:53:52.438Z,4.73
2018-04-22T09:56:19.355Z,7.00
2018-04-22T09:58:46.269Z,4.83
2018-04-22T10:01:19.053Z,8.83
2018-04-22T10:03:46.306Z,9.07
2018-04-22T10:06:13.189Z,7.90
2018-04-22T10:08:40.921Z,5.10
2018-04-22T10:11:07.780Z,3.97
2018-04-22T10:13:34.745Z,3.40
2018-04-22T10:16:02.361Z,5.20
2018-04-22T10:18:29.240Z,8.33
2018-04-22T10:20:56.172Z,6.53
2018-04-22T10:23:23.460Z,4.30
2018-04-22T10:25:51.142Z,8.43
2018-04-22T10:28:18.001Z,5.27
2018-04-22T10:30:44.917Z,6.70
2018-04-22T10:33:12.540Z,5.97
2018-04-22T10:35:39.713Z,4.17
2018-04-22T10:38:07.320Z,4.33
2018-04-22T10:40:34.184Z,5.83
2018-04-22T10:43:01.100Z,6.93
2018-04-22T10:45:27.971Z,4.23
2018-04-22T10:47:54.875Z,5.83
2018-04-22T10:50:22.537Z,6.60
2018-04-22T10:52:50.145Z,8.90
2018-04-22T10:55:17.545Z,7.70
2018-04-22T10:57:45.151Z,6.40
2018-04-22T11:00:12.020Z,3.23
2018-04-22T11:02:38.919Z,5.20
2018-04-22T11:05:05.896Z,4.67
2018-04-22T11:07:32.738Z,4.83
2018-04-22T11:09:59.701Z,4.77
2018-04-22T11:12:26.572Z,5.47
2018-04-22T11:14:53.728Z,5.27
2018-04-22T11:17:20.662Z,5.57
2018-04-22T11:19:47.533Z,6.93
2018-04-22T11:22:15.176Z,6.33
2018-04-22T11:24:42.049Z,5.53
2018-04-22T11:27:09.328Z,6.57
2018-04-22T11:29:36.188Z,5.53
2018-04-22T11:32:03.141Z,7.03
2018-04-22T11:34:30.054Z,6.57
2018-04-22T11:36:57.011Z,4.87
2018-04-22T11:39:23.891Z,7.07
2018-04-22T11:41:50.785Z,9.00
2018-04-22T11:44:17.779Z,5.93
2018-04-22T11:46:44.685Z,8.20
2018-04-22T11:49:11.543Z,8.93
2018-04-22T11:51:38.474Z,8.23
2018-04-22T11:54:05.354Z,7.50
2018-04-22T11:56:33.051Z,9.00
2018-04-22T11:59:00.767Z,9.63
2018-04-22T12:01:28.771Z,5.53
2018-04-22T12:03:55.697Z,5.97
2018-04-22T12:06:22.633Z,6.03
2018-04-22T12:08:49.526Z,6.17
2018-04-22T12:11:17.134Z,7.43
2018-04-22T12:13:44.059Z,7.83
2018-04-22T12:16:10.945Z,6.63
2018-04-22T12:18:37.929Z,5.90
2018-04-22T12:21:05.554Z,6.27
2018-04-22T12:23:33.558Z,6.57
2018-04-22T12:26:00.465Z,6.40
2018-04-22T12:28:27.329Z,7.43
2018-04-22T12:30:54.275Z,9.03
2018-04-22T12:33:21.143Z,5.70
2018-04-22T12:35:48.802Z,6.23
2018-04-22T12:38:16.400Z,6.17
2018-04-22T12:40:43.335Z,9.57
2018-04-22T12:43:10.273Z,6.27
2018-04-22T12:45:37.201Z,7.00
2018-04-22T12:48:04.869Z,6.03
2018-04-22T12:50:32.490Z,5.27
2018-04-22T12:53:00.194Z,9.57
2018-04-22T12:55:27.793Z,7.43
2018-04-22T12:57:54.712Z,7.50
2018-04-22T13:00:22.365Z,7.60
2018-04-22T13:02:50.109Z,7.23
2018-04-22T13:05:16.982Z,8.80
2018-04-22T13:07:44.680Z,7.17
2018-04-22T13:10:11.588Z,6.83
2018-04-22T13:12:39.191Z,9.07
2018-04-22T13:15:06.543Z,10.13
2018-04-22T13:17:33.462Z,7.40
2018-04-22T13:20:00.329Z,13.07
2018-04-22T13:22:27.266Z,11.00
2018-04-22T13:24:54.124Z,7.97
2018-04-22T13:27:21.092Z,10.57
2018-04-22T13:29:48.016Z,7.70
2018-04-22T13:32:14.965Z,7.77
2018-04-22T13:34:41.937Z,7.50
2018-04-22T13:37:08.921Z,9.87
2018-04-22T13:39:36.523Z,14.03
2018-04-22T13:42:03.654Z,12.17
2018-04-22T13:44:30.581Z,11.93
2018-04-22T13:46:58.594Z,12.73
2018-04-22T13:49:25.489Z,13.13
2018-04-22T13:51:52.346Z,10.57
2018-04-22T13:54:20.132Z,11.17
2018-04-22T13:56:47.200Z,10.17
2018-04-22T13:59:14.112Z,10.83
2018-04-22T14:01:41.082Z,10.53
2018-04-22T14:04:08.053Z,9.67
2018-04-22T14:06:34.978Z,7.57
2018-04-22T14:09:02.336Z,9.00
2018-04-22T14:11:29.194Z,10.17
2018-04-22T14:13:56.065Z,8.90
2018-04-22T14:16:23.060Z,10.30
2018-04-22T14:18:49.920Z,9.53
2018-04-22T14:21:17.169Z,8.43
2018-04-22T14:23:44.023Z,11.47
2018-04-22T14:26:10.903Z,9.27
2018-04-22T14:28:38.570Z,12.03
2018-04-22T14:31:06.165Z,11.43
2018-04-22T14:33:33.027Z,11.77
2018-04-22T14:36:00.062Z,12.10
2018-04-22T14:38:27.045Z,11.87
2018-04-22T14:40:53.934Z,16.20
2018-04-22T14:43:21.147Z,12.17
2018-04-22T14:46:06.475Z,11.43
2018-04-22T14:48:52.042Z,11.73
2018-04-22T14:51:19.702Z,13.40
2018-04-22T14:53:47.307Z,14.53
2018-04-22T14:56:15.277Z,13.63
2018-04-22T14:58:42.159Z,12.33
2018-04-22T15:01:09.096Z,15.73
2018-04-22T15:03:36.034Z,14.93
2018-04-22T15:06:03.013Z,10.83
2018-04-22T15:08:29.976Z,11.23
2018-04-22T15:10:57.091Z,13.40
2018-04-22T15:13:23.978Z,14.47
2018-04-22T15:15:50.856Z,13.00
2018-04-22T15:18:17.776Z,13.00
2018-04-22T15:20:44.700Z,14.43
2018-04-22T15:23:12.414Z,15.17
2018-04-22T15:25:39.279Z,13.70
2018-04-22T15:28:06.605Z,14.40
2018-04-22T15:30:33.493Z,12.83
2018-04-22T15:33:02.045Z,15.50
2018-04-22T15:35:29.024Z,12.00
2018-04-22T15:37:55.990Z,13.33
2018-04-22T15:40:23.598Z,12.27
2018-04-22T15:42:50.464Z,13.10
2018-04-22T15:45:17.380Z,12.73
2018-04-22T15:47:44.289Z,15.53
2018-04-22T15:50:11.957Z,12.90
2018-04-22T15:52:38.865Z,14.73
2018-04-22T15:55:05.809Z,13.70
2018-04-22T15:57:32.740Z,12.00
2018-04-22T15:59:59.661Z,12.10
2018-04-22T16:02:26.629Z,15.63
2018-04-22T16:04:53.546Z,16.30
2018-04-22T16:07:20.434Z,13.00
2018-04-22T16:09:47.344Z,13.73
2018-04-22T16:12:14.276Z,14.20
2018-04-22T16:14:47.295Z,16.77
2018-04-22T16:17:14.251Z,13.37
2018-04-22T16:19:41.180Z,15.13
2018-04-22T16:22:08.092Z,15.13
2018-04-22T16:24:34.947Z,12.60
2018-04-22T16:27:01.811Z,15.63
2018-04-22T16:29:28.732Z,12.60
2018-04-22T16:31:55.744Z,13.33
2018-04-22T16:34:22.610Z,17.67
2018-04-22T16:36:50.275Z,13.57
2018-04-22T16:39:17.883Z,15.20
2018-04-22T16:41:44.828Z,13.67
2018-04-22T16:44:11.804Z,13.63
2018-04-22T16:46:38.667Z,13.53
2018-04-22T16:49:06.346Z,14.20
2018-04-22T16:51:34.005Z,16.57
2018-04-22T16:54:01.611Z,14.07
2018-04-22T16:56:28.520Z,16.03
2018-04-22T16:58:55.393Z,14.87
2018-04-22T17:01:22.354Z,12.73
2018-04-22T17:03:49.249Z,13.57
2018-04-22T17:06:16.917Z,14.23
2018-04-22T17:08:44.526Z,14.47
2018-04-22T17:11:11.429Z,14.13
2018-04-22T17:13:38.352Z,13.33
2018-04-22T17:16:06.023Z,15.40
2018-04-22T17:18:33.684Z,15.43
2018-04-22T17:21:01.333Z,15.80
2018-04-22T17:23:28.289Z,19.30
2018-04-22T17:25:55.291Z,14.43
2018-04-22T17:28:22.163Z,14.37
2018-04-22T17:30:49.085Z,19.33
2018-04-22T17:33:15.935Z,14.23
2018-04-22T17:35:42.900Z,17.53
2018-04-22T17:38:09.813Z,17.83
2018-04-22T17:40:36.723Z,17.47
2018-04-22T17:43:04.392Z,17.50
2018-04-22T17:45:31.306Z,15.10
2018-04-22T17:47:58.507Z,20.83
2018-04-22T17:50:25.407Z,17.73
2018-04-22T17:52:52.287Z,16.37
2018-04-22T17:55:19.214Z,18.33
2018-04-22T17:57:46.083Z,19.03
2018-04-22T18:00:13.025Z,18.37
2018-04-22T18:02:40.002Z,16.97
2018-04-22T18:05:06.976Z,18.70
2018-04-22T18:07:33.839Z,16.67
2018-04-22T18:10:00.847Z,15.30
2018-04-22T18:12:27.732Z,15.83
2018-04-22T18:14:54.684Z,17.10
2018-04-22T18:17:21.643Z,16.00
2018-04-22T18:19:48.558Z,15.00
2018-04-22T18:22:15.517Z,14.67
2018-04-22T18:24:42.425Z,18.13
2018-04-22T18:27:09.302Z,17.23
2018-04-22T18:29:36.205Z,15.30
2018-04-22T18:32:03.084Z,17.60
2018-04-22T18:34:30.051Z,15.53
2018-04-22T18:36:57.764Z,16.10
2018-04-22T18:39:24.686Z,15.40
2018-04-22T18:41:51.584Z,16.37
2018-04-22T18:44:18.497Z,16.87
2018-04-22T18:46:45.377Z,17.03
2018-04-22T18:49:12.319Z,17.80
2018-04-22T18:51:39.192Z,15.77
2018-04-22T18:54:06.828Z,20.17
2018-04-22T18:56:33.764Z,16.73
2018-04-22T18:59:00.772Z,17.37
2018-04-22T19:01:27.645Z,17.50
2018-04-22T19:03:55.305Z,20.43
2018-04-22T19:06:22.964Z,19.50
2018-04-22T19:08:49.869Z,17.93
2018-04-22T19:11:16.762Z,17.00
2018-04-22T19:13:43.728Z,19.23
2018-04-22T19:16:10.721Z,17.40
2018-04-22T19:18:37.588Z,18.13
2018-04-22T19:21:04.556Z,17.57
2018-04-22T19:23:31.460Z,21.40
2018-04-22T19:25:58.434Z,22.10
2018-04-22T19:28:25.348Z,19.97
2018-04-22T19:30:52.324Z,21.50
2018-04-22T19:33:19.193Z,17.90
2018-04-22T19:35:46.107Z,18.20
2018-04-22T19:38:13.004Z,23.53
2018-04-22T19:40:39.906Z,14.93
2018-04-22T19:43:06.784Z,13.00
2018-04-22T19:45:33.835Z,10.00
2018-04-22T19:48:00.706Z,13.03
2018-04-22T19:50:28.628Z,14.40
2018-04-22T19:52:55.500Z,13.20
2018-04-22T19:55:23.106Z,12.83
2018-04-22T19:57:50.027Z,10.00
2018-04-22T20:00:16.956Z,8.93
2018-04-22T20:02:44.040Z,10.60
2018-04-22T20:05:10.964Z,11.87
2018-04-22T20:07:38.861Z,10.70
2018-04-22T20:10:05.728Z,9.67
2018-04-22T20:12:32.704Z,8.93
2018-04-22T20:14:59.589Z,9.10
2018-04-22T20:17:26.496Z,9.30
2018-04-22T20:19:53.385Z,12.97
2018-04-22T20:22:20.302Z,10.17
2018-04-22T20:24:47.907Z,11.57
2018-04-22T20:27:14.877Z,10.00
2018-04-22T20:29:41.763Z,10.63
2018-04-22T20:32:09.443Z,11.80
2018-04-22T20:34:36.369Z,10.37
2018-04-22T20:37:04.065Z,11.77
2018-04-22T20:39:30.931Z,12.10
2018-04-22T20:41:57.878Z,15.03
2018-04-22T20:44:24.787Z,12.20
2018-04-22T20:46:51.753Z,11.77
2018-04-22T20:49:18.633Z,12.17
2018-04-22T20:51:45.579Z,13.90
2018-04-22T20:54:12.446Z,13.27
2018-04-22T20:56:40.150Z,12.30
2018-04-22T20:59:07.030Z,13.17
2018-04-22T21:01:33.964Z,12.17
2018-04-22T21:04:00.868Z,15.73
2018-04-22T21:06:27.767Z,13.53
2018-04-22T21:08:54.646Z,14.27
2018-04-22T21:11:21.574Z,16.53
2018-04-22T21:13:48.532Z,17.93
2018-04-22T21:16:16.192Z,14.27
2018-04-22T21:18:43.855Z,13.20
2018-04-22T21:21:11.515Z,16.63
2018-04-22T21:23:39.167Z,15.23
2018-04-22T21:26:06.121Z,13.17
2018-04-22T21:28:33.860Z,16.13
2018-04-22T21:31:00.966Z,13.60
2018-04-22T21:33:27.885Z,14.40
2018-04-22T21:35:55.555Z,15.07
2018-04-22T21:38:23.265Z,16.17
2018-04-22T21:40:50.136Z,16.77
2018-04-22T21:43:17.054Z,15.97
2018-04-22T21:45:43.953Z,17.77
2018-04-22T21:48:11.605Z,19.10
2018-04-22T21:50:38.479Z,16.07
2018-04-22T21:53:05.451Z,14.53
2018-04-22T21:55:32.384Z,16.93
2018-04-22T21:57:59.285Z,18.13
2018-04-22T22:00:26.224Z,16.67
2018-04-22T22:02:53.504Z,17.73
2018-04-22T22:05:21.153Z,19.97
2018-04-22T22:07:48.021Z,21.33
2018-04-22T22:10:14.989Z,17.77
2018-04-22T22:12:41.900Z,18.33
2018-04-22T22:15:09.570Z,20.60
2018-04-22T22:17:37.207Z,20.03
2018-04-22T22:20:04.158Z,20.20
2018-04-22T22:22:31.140Z,20.67
2018-04-22T22:24:58.064Z,22.30
2018-04-22T22:27:25.736Z,20.33
2018-04-22T22:29:53.363Z,21.20
2018-04-22T22:32:21.081Z,20.77
2018-04-22T22:34:48.141Z,21.77
2018-04-22T22:37:15.025Z,22.70
2018-04-22T22:39:41.988Z,22.77
2018-04-22T22:42:08.884Z,23.10
2018-04-22T22:44:35.809Z,22.43
2018-04-22T22:47:02.737Z,24.73
2018-04-22T22:49:30.393Z,23.37
2018-04-22T22:51:58.012Z,23.23
2018-04-22T22:54:24.989Z,21.63
2018-04-22T22:56:51.864Z,21.47
2018-04-22T22:59:18.841Z,22.60
2018-04-22T23:01:45.735Z,25.40
2018-04-22T23:04:13.411Z,22.10
2018-04-22T23:06:41.041Z,22.67
2018-04-22T23:09:07.972Z,20.53
2018-04-22T23:11:34.839Z,18.50
2018-04-22T23:14:01.765Z,18.53
2018-04-22T23:16:28.646Z,21.37
2018-04-22T23:18:55.612Z,18.50
2018-04-22T23:21:22.510Z,18.00
2018-04-22T23:23:50.456Z,16.97
2018-04-22T23:26:17.329Z,16.13
2018-04-22T23:28:44.248Z,17.03
2018-04-22T23:31:11.111Z,15.70
2018-04-22T23:33:38.024Z,13.90
2018-04-22T23:36:30.824Z,13.63
2018-04-22T23:38:58.546Z,15.97
2018-04-22T23:41:25.438Z,13.43
2018-04-22T23:43:52.295Z,13.77
2018-04-22T23:46:20.172Z,11.60
2018-04-22T23:48:47.852Z,13.53
2018-04-22T23:51:14.732Z,12.37
2018-04-22T23:53:41.821Z,12.10
2018-04-22T23:56:09.455Z,15.97
2018-04-22T23:58:36.350Z,14.00
